sensor_id;sensor_type;location;lat;lon;timestamp;P1;durP1;ratioP1;P2;durP2;ratioP2
39698;SDS011;25372;50.582;12.250;2023-03-20T00:01:51;5.50;;;2.90;;
39698;SDS011;25372;50.582;12.250;2023-03-20T00:12:11;5.40;;;3.30;;
39698;SDS011;25372;50.582;12.250;2023-03-20T00:22:36;7.90;;;3.63;;
39698;SDS011;25372;50.582;12.250;2023-03-20T00:32:57;5.75;;;3.33;;
39698;SDS011;25372;50.582;12.250;2023-03-20T00:43:20;6.65;;;3.92;;
39698;SDS011;25372;50.582;12.250;2023-03-20T00:53:41;5.20;;;3.00;;
39698;SDS011;25372;50.582;12.250;2023-03-20T01:04:07;2.65;;;2.35;;
39698;SDS011;25372;50.582;12.250;2023-03-20T01:14:30;2.67;;;1.85;;
39698;SDS011;25372;50.582;12.250;2023-03-20T01:24:53;3.22;;;1.98;;
39698;SDS011;25372;50.582;12.250;2023-03-20T01:35:14;5.15;;;2.25;;
39698;SDS011;25372;50.582;12.250;2023-03-20T01:45:38;2.67;;;1.90;;
39698;SDS011;25372;50.582;12.250;2023-03-20T01:56:08;2.92;;;1.85;;
39698;SDS011;25372;50.582;12.250;2023-03-20T02:06:38;3.70;;;2.05;;
39698;SDS011;25372;50.582;12.250;2023-03-20T02:17:14;4.82;;;2.00;;
39698;SDS011;25372;50.582;12.250;2023-03-20T02:27:43;3.40;;;2.05;;
39698;SDS011;25372;50.582;12.250;2023-03-20T02:49:29;2.95;;;2.30;;
39698;SDS011;25372;50.582;12.250;2023-03-20T03:00:07;6.20;;;2.35;;
39698;SDS011;25372;50.582;12.250;2023-03-20T03:10:34;2.05;;;1.90;;
39698;SDS011;25372;50.582;12.250;2023-03-20T03:21:01;3.20;;;2.05;;
39698;SDS011;25372;50.582;12.250;2023-03-20T03:31:29;2.58;;;2.00;;
39698;SDS011;25372;50.582;12.250;2023-03-20T03:41:52;3.35;;;1.65;;
39698;SDS011;25372;50.582;12.250;2023-03-20T03:52:21;3.58;;;1.77;;
39698;SDS011;25372;50.582;12.250;2023-03-20T04:02:46;4.05;;;2.00;;
39698;SDS011;25372;50.582;12.250;2023-03-20T04:13:10;3.38;;;2.20;;
39698;SDS011;25372;50.582;12.250;2023-03-20T04:23:33;2.55;;;2.20;;
39698;SDS011;25372;50.582;12.250;2023-03-20T04:33:53;2.92;;;2.17;;
39698;SDS011;25372;50.582;12.250;2023-03-20T04:44:20;3.60;;;2.25;;
39698;SDS011;25372;50.582;12.250;2023-03-20T04:54:41;2.90;;;1.90;;
39698;SDS011;25372;50.582;12.250;2023-03-20T05:05:04;4.18;;;1.63;;
39698;SDS011;25372;50.582;12.250;2023-03-20T05:15:28;3.78;;;2.03;;
39698;SDS011;25372;50.582;12.250;2023-03-20T05:26:10;3.55;;;2.28;;
39698;SDS011;25372;50.582;12.250;2023-03-20T05:36:49;4.60;;;1.73;;
39698;SDS011;25372;50.582;12.250;2023-03-20T05:47:26;3.97;;;2.40;;
39698;SDS011;25372;50.582;12.250;2023-03-20T05:57:54;2.28;;;1.88;;
39698;SDS011;25372;50.582;12.250;2023-03-20T06:08:42;2.00;;;1.80;;
39698;SDS011;25372;50.582;12.250;2023-03-20T06:19:03;3.33;;;2.08;;
39698;SDS011;25372;50.582;12.250;2023-03-20T06:29:26;1.83;;;1.73;;
39698;SDS011;25372;50.582;12.250;2023-03-20T06:39:56;3.80;;;1.80;;
39698;SDS011;25372;50.582;12.250;2023-03-20T06:50:19;7.00;;;2.92;;
39698;SDS011;25372;50.582;12.250;2023-03-20T07:00:40;5.22;;;2.13;;
39698;SDS011;25372;50.582;12.250;2023-03-20T07:11:03;4.38;;;2.47;;
39698;SDS011;25372;50.582;12.250;2023-03-20T07:21:25;3.97;;;2.03;;
39698;SDS011;25372;50.582;12.250;2023-03-20T07:31:48;3.95;;;2.30;;
39698;SDS011;25372;50.582;12.250;2023-03-20T07:42:17;9.50;;;3.08;;
39698;SDS011;25372;50.582;12.250;2023-03-20T07:52:46;3.35;;;2.17;;
39698;SDS011;25372;50.582;12.250;2023-03-20T08:03:08;8.70;;;2.58;;
39698;SDS011;25372;50.582;12.250;2023-03-20T08:13:30;2.50;;;2.08;;
39698;SDS011;25372;50.582;12.250;2023-03-20T08:23:51;2.47;;;2.15;;
39698;SDS011;25372;50.582;12.250;2023-03-20T08:34:13;6.03;;;3.10;;
39698;SDS011;25372;50.582;12.250;2023-03-20T08:44:34;4.30;;;3.28;;
39698;SDS011;25372;50.582;12.250;2023-03-20T08:54:56;7.55;;;4.25;;
39698;SDS011;25372;50.582;12.250;2023-03-20T09:05:17;7.85;;;4.72;;
39698;SDS011;25372;50.582;12.250;2023-03-20T09:15:39;11.00;;;4.70;;
39698;SDS011;25372;50.582;12.250;2023-03-20T09:26:00;9.02;;;5.47;;
39698;SDS011;25372;50.582;12.250;2023-03-20T09:36:22;14.68;;;6.10;;
39698;SDS011;25372;50.582;12.250;2023-03-20T09:57:37;14.30;;;7.50;;
39698;SDS011;25372;50.582;12.250;2023-03-20T10:08:00;16.00;;;8.13;;
39698;SDS011;25372;50.582;12.250;2023-03-20T10:18:25;18.73;;;8.63;;
39698;SDS011;25372;50.582;12.250;2023-03-20T10:28:50;14.15;;;7.07;;
39698;SDS011;25372;50.582;12.250;2023-03-20T10:39:18;14.43;;;7.63;;
39698;SDS011;25372;50.582;12.250;2023-03-20T10:49:50;17.48;;;8.32;;
39698;SDS011;25372;50.582;12.250;2023-03-20T11:10:39;20.38;;;9.68;;
39698;SDS011;25372;50.582;12.250;2023-03-20T11:21:03;18.80;;;8.65;;
39698;SDS011;25372;50.582;12.250;2023-03-20T11:31:24;17.13;;;8.60;;
39698;SDS011;25372;50.582;12.250;2023-03-20T11:41:53;23.13;;;9.45;;
39698;SDS011;25372;50.582;12.250;2023-03-20T11:52:16;23.40;;;7.83;;
39698;SDS011;25372;50.582;12.250;2023-03-20T12:02:43;18.45;;;7.90;;
39698;SDS011;25372;50.582;12.250;2023-03-20T12:13:05;15.57;;;8.73;;
39698;SDS011;25372;50.582;12.250;2023-03-20T12:23:35;18.20;;;8.18;;
39698;SDS011;25372;50.582;12.250;2023-03-20T12:34:00;18.98;;;9.35;;
39698;SDS011;25372;50.582;12.250;2023-03-20T12:44:33;24.33;;;10.35;;
39698;SDS011;25372;50.582;12.250;2023-03-20T12:55:06;19.13;;;9.60;;
39698;SDS011;25372;50.582;12.250;2023-03-20T13:05:41;22.20;;;9.43;;
39698;SDS011;25372;50.582;12.250;2023-03-20T13:16:08;24.48;;;9.57;;
39698;SDS011;25372;50.582;12.250;2023-03-20T13:26:39;23.23;;;9.88;;
39698;SDS011;25372;50.582;12.250;2023-03-20T13:37:09;31.70;;;12.95;;
39698;SDS011;25372;50.582;12.250;2023-03-20T13:47:37;28.27;;;11.52;;
39698;SDS011;25372;50.582;12.250;2023-03-20T13:58:03;26.58;;;12.13;;
39698;SDS011;25372;50.582;12.250;2023-03-20T14:08:35;34.83;;;13.50;;
39698;SDS011;25372;50.582;12.250;2023-03-20T14:19:03;30.92;;;13.15;;
39698;SDS011;25372;50.582;12.250;2023-03-20T14:29:35;27.52;;;13.10;;
39698;SDS011;25372;50.582;12.250;2023-03-20T14:39:58;34.15;;;13.90;;
39698;SDS011;25372;50.582;12.250;2023-03-20T14:50:28;36.58;;;14.00;;
39698;SDS011;25372;50.582;12.250;2023-03-20T15:00:52;36.95;;;13.20;;
39698;SDS011;25372;50.582;12.250;2023-03-20T15:11:16;44.17;;;15.63;;
39698;SDS011;25372;50.582;12.250;2023-03-20T15:21:40;39.28;;;14.85;;
39698;SDS011;25372;50.582;12.250;2023-03-20T15:32:04;46.63;;;16.35;;
39698;SDS011;25372;50.582;12.250;2023-03-20T15:42:26;35.35;;;15.13;;
39698;SDS011;25372;50.582;12.250;2023-03-20T15:52:49;34.15;;;12.88;;
39698;SDS011;25372;50.582;12.250;2023-03-20T16:03:13;28.85;;;11.07;;
39698;SDS011;25372;50.582;12.250;2023-03-20T16:13:39;24.95;;;8.35;;
39698;SDS011;25372;50.582;12.250;2023-03-20T16:24:04;34.87;;;12.67;;
39698;SDS011;25372;50.582;12.250;2023-03-20T16:34:32;22.02;;;7.70;;
39698;SDS011;25372;50.582;12.250;2023-03-20T16:44:56;15.23;;;6.70;;
39698;SDS011;25372;50.582;12.250;2023-03-20T16:55:22;12.73;;;6.38;;
39698;SDS011;25372;50.582;12.250;2023-03-20T17:05:47;42.20;;;14.93;;
39698;SDS011;25372;50.582;12.250;2023-03-20T17:16:12;13.73;;;5.88;;
39698;SDS011;25372;50.582;12.250;2023-03-20T17:26:35;10.25;;;5.07;;
39698;SDS011;25372;50.582;12.250;2023-03-20T17:36:57;51.17;;;21.27;;
39698;SDS011;25372;50.582;12.250;2023-03-20T17:47:23;15.80;;;9.05;;
39698;SDS011;25372;50.582;12.250;2023-03-20T17:57:46;13.65;;;6.43;;
39698;SDS011;25372;50.582;12.250;2023-03-20T18:08:10;10.32;;;5.50;;
39698;SDS011;25372;50.582;12.250;2023-03-20T18:18:35;10.15;;;5.43;;
39698;SDS011;25372;50.582;12.250;2023-03-20T18:28:55;11.00;;;5.72;;
39698;SDS011;25372;50.582;12.250;2023-03-20T18:39:17;8.75;;;5.38;;
39698;SDS011;25372;50.582;12.250;2023-03-20T18:49:39;15.98;;;7.57;;
39698;SDS011;25372;50.582;12.250;2023-03-20T19:00:01;10.52;;;5.85;;
39698;SDS011;25372;50.582;12.250;2023-03-20T19:10:25;11.63;;;4.97;;
39698;SDS011;25372;50.582;12.250;2023-03-20T19:31:11;19.23;;;7.30;;
39698;SDS011;25372;50.582;12.250;2023-03-20T19:41:34;12.52;;;6.38;;
39698;SDS011;25372;50.582;12.250;2023-03-20T19:51:55;17.48;;;7.13;;
39698;SDS011;25372;50.582;12.250;2023-03-20T20:02:18;11.77;;;6.15;;
39698;SDS011;25372;50.582;12.250;2023-03-20T20:12:39;11.52;;;6.88;;
39698;SDS011;25372;50.582;12.250;2023-03-20T20:23:00;17.15;;;7.05;;
39698;SDS011;25372;50.582;12.250;2023-03-20T20:33:21;13.48;;;7.03;;
39698;SDS011;25372;50.582;12.250;2023-03-20T20:43:45;13.15;;;6.50;;
39698;SDS011;25372;50.582;12.250;2023-03-20T20:54:06;18.17;;;8.13;;
39698;SDS011;25372;50.582;12.250;2023-03-20T21:04:28;17.92;;;7.78;;
39698;SDS011;25372;50.582;12.250;2023-03-20T21:14:49;17.20;;;7.38;;
39698;SDS011;25372;50.582;12.250;2023-03-20T21:25:12;16.08;;;7.55;;
39698;SDS011;25372;50.582;12.250;2023-03-20T21:35:35;17.15;;;8.02;;
39698;SDS011;25372;50.582;12.250;2023-03-20T21:46:00;20.15;;;8.82;;
39698;SDS011;25372;50.582;12.250;2023-03-20T21:56:21;16.83;;;6.55;;
39698;SDS011;25372;50.582;12.250;2023-03-20T22:06:43;14.82;;;6.47;;
39698;SDS011;25372;50.582;12.250;2023-03-20T22:17:03;16.95;;;7.80;;
39698;SDS011;25372;50.582;12.250;2023-03-20T22:27:26;14.88;;;6.22;;
39698;SDS011;25372;50.582;12.250;2023-03-20T22:37:47;14.13;;;6.78;;
39698;SDS011;25372;50.582;12.250;2023-03-20T22:48:08;13.07;;;7.10;;
39698;SDS011;25372;50.582;12.250;2023-03-20T22:58:29;14.95;;;5.55;;
39698;SDS011;25372;50.582;12.250;2023-03-20T23:08:52;15.25;;;6.55;;
39698;SDS011;25372;50.582;12.250;2023-03-20T23:19:14;16.13;;;7.07;;
39698;SDS011;25372;50.582;12.250;2023-03-20T23:29:36;16.45;;;7.18;;
39698;SDS011;25372;50.582;12.250;2023-03-20T23:39:57;13.60;;;6.07;;
39698;SDS011;25372;50.582;12.250;2023-03-20T23:50:20;16.10;;;6.72;;
